Time;durP1;ratioP1;P1;durP2;ratioP2;P2;SDS_P1;SDS_P2;PMS_P1;PMS_P2;Temp;Humidity;BMP_temperature;BMP_pressure;BME280_temperature;BME280_humidity;BME280_pressure;Samples;Min_cycle;Max_cycle;Signal;HPM_P1;HPM_P2
2023/10/16 00:01:10;;;;;;;;;;;10.00;55.30;;;5.41;84.69;95870.69;4994096;28;20319;-50
2023/10/16 00:03:41;;;;;;;;;;;10.00;55.30;;;5.41;84.40;95870.69;4994498;28;19975;-45
2023/10/16 00:06:07;;;;;;;;;;;10.00;55.30;;;5.39;84.84;95871.94;4994284;28;19909;-45
2023/10/16 00:08:34;;;;;;;;;;;10.00;55.30;;;5.41;84.10;95864.59;4994344;28;20026;-45
2023/10/16 00:11:03;;;;;;;;;;;10.00;55.30;;;5.40;84.45;95863.00;4994933;28;19915;-45
2023/10/16 00:13:37;;;;;;;;;;;10.00;55.20;;;5.41;85.19;95861.97;4993528;28;19920;-45
2023/10/16 00:16:03;;;;;;;;;;;10.00;55.50;;;5.35;85.63;95855.72;4994537;28;19909;-45
2023/10/16 00:18:34;;;;;;;;;;;10.00;55.30;;;5.32;86.10;95854.34;4993818;28;19913;-46
2023/10/16 00:21:05;;;;;;;;;;;10.00;55.20;;;5.30;86.38;95856.41;4994407;28;19978;-46
2023/10/16 00:23:40;;;;;;;;;;;10.00;55.30;;;5.25;86.99;95861.56;4993689;28;19910;-46
2023/10/16 00:26:19;;;;;;;;;;;10.00;55.30;;;5.25;87.18;95858.13;4994451;28;19910;-45
2023/10/16 00:28:46;;;;;;;;;;;10.00;55.30;;;5.24;87.68;95851.22;4994260;28;19909;-45
2023/10/16 00:31:20;;;;;;;;;;;9.90;55.20;;;5.20;87.74;95852.69;4993599;28;19914;-49
2023/10/16 00:33:49;;;;;;;;;;;9.90;55.30;;;5.13;88.10;95850.13;4994073;28;19936;-46
2023/10/16 00:36:14;;;;;;;;;;;9.90;55.30;;;5.13;88.23;95844.84;4993566;28;20397;-45
2023/10/16 00:38:41;;;;;;;;;;;9.90;55.30;;;5.10;88.21;95846.09;4993731;28;20000;-45
2023/10/16 00:41:24;;;;;;;;;;;9.90;55.40;;;5.06;88.12;95834.38;4993682;28;20381;-45
2023/10/16 00:43:50;;;;;;;;;;;9.80;55.40;;;5.05;88.64;95840.69;4993324;28;20296;-47
2023/10/16 00:46:38;;;;;;;;;;;9.80;55.40;;;5.01;88.59;95844.78;4994364;28;19909;-51
2023/10/16 00:49:09;;;;;;;;;;;9.80;55.40;;;4.98;88.15;95840.00;4988966;28;20286;-47
2023/10/16 00:51:40;;;;;;;;;;;9.80;55.50;;;4.96;88.55;95838.59;4994245;28;19951;-46
2023/10/16 00:54:17;;;;;;;;;;;9.70;55.50;;;4.92;88.87;95832.97;4992938;28;19960;-49
2023/10/16 00:56:47;;;;;;;;;;;9.70;55.50;;;4.91;88.80;95822.59;4993633;28;19917;-45
2023/10/16 00:59:16;;;;;;;;;;;9.70;55.50;;;4.85;89.20;95830.38;4993175;28;19960;-48
2023/10/16 01:01:44;;;;;;;;;;;9.60;55.50;;;4.86;89.15;95832.00;4992400;28;19992;-46
2023/10/16 01:04:15;;;;;;;;;;;9.60;55.50;;;4.86;89.08;95828.56;4993815;28;19953;-48
2023/10/16 01:06:44;;;;;;;;;;;9.60;55.60;;;4.84;89.31;95827.97;4992832;28;19932;-45
2023/10/16 01:09:12;;;;;;;;;;;9.60;55.60;;;4.81;89.10;95831.06;4993259;28;19960;-46
2023/10/16 01:11:38;;;;;;;;;;;9.60;55.60;;;4.79;89.12;95822.53;4993022;28;19909;-47
2023/10/16 01:14:05;;;;;;;;;;;9.60;55.70;;;4.78;89.23;95815.66;4993314;28;19913;-47
2023/10/16 01:16:32;;;;;;;;;;;9.50;55.60;;;4.74;89.11;95814.50;4993651;28;20012;-44
2023/10/16 01:19:06;;;;;;;;;;;9.50;55.70;;;4.72;88.77;95816.56;4991701;28;19936;-45
2023/10/16 01:21:35;;;;;;;;;;;9.50;55.70;;;4.77;88.89;95816.69;4993840;28;19940;-48
2023/10/16 01:24:12;;;;;;;;;;;9.50;55.80;;;4.71;89.29;95810.47;4992735;28;19967;-46
2023/10/16 01:26:41;;;;;;;;;;;9.50;55.80;;;4.66;89.53;95802.41;4985694;28;20379;-47
2023/10/16 01:29:09;;;;;;;;;;;9.40;55.80;;;4.65;89.74;95808.72;4993213;28;19909;-48
2023/10/16 01:31:36;;;;;;;;;;;9.40;55.80;;;4.62;90.06;95803.88;4992913;28;20011;-48
2023/10/16 01:34:11;;;;;;;;;;;9.40;55.80;;;4.61;89.67;95797.81;4997571;28;19959;-47
2023/10/16 01:36:37;;;;;;;;;;;9.40;55.80;;;4.60;89.67;95798.00;4986730;28;19917;-51
2023/10/16 01:39:08;;;;;;;;;;;9.30;55.80;;;4.58;89.69;95798.25;4984642;28;20288;-47
2023/10/16 01:41:39;;;;;;;;;;;9.30;55.80;;;4.56;89.86;95799.47;4992737;28;19967;-52
2023/10/16 01:44:09;;;;;;;;;;;9.30;55.90;;;4.54;90.32;95806.81;4987452;28;19909;-50
2023/10/16 01:46:35;;;;;;;;;;;9.30;55.90;;;4.47;90.88;95806.09;4993075;28;19910;-47
2023/10/16 01:49:04;;;;;;;;;;;9.30;55.90;;;4.49;90.99;95810.13;4992403;28;19920;-46
2023/10/16 01:51:30;;;;;;;;;;;9.20;55.90;;;4.52;91.64;95803.59;4993065;28;19909;-47
2023/10/16 01:53:56;;;;;;;;;;;9.20;55.90;;;4.42;91.86;95798.84;4988433;28;19917;-48
2023/10/16 01:56:22;;;;;;;;;;;9.20;55.90;;;4.48;91.98;95800.59;4992020;28;20402;-46
2023/10/16 01:58:52;;;;;;;;;;;9.20;55.90;;;4.39;92.59;95792.16;4981711;28;19996;-48
2023/10/16 02:01:20;;;;;;;;;;;9.20;56.00;;;4.38;93.83;95793.19;4988647;28;20011;-49
2023/10/16 02:03:49;;;;;;;;;;;9.10;56.00;;;4.42;93.82;95790.94;4980418;28;19910;-51
2023/10/16 02:06:17;;;;;;;;;;;9.10;56.00;;;4.35;94.21;95780.44;4988746;28;19909;-46
2023/10/16 02:08:46;;;;;;;;;;;9.10;56.10;;;4.33;95.45;95782.50;4981866;28;19913;-47
2023/10/16 02:11:13;;;;;;;;;;;9.10;56.10;;;4.34;95.94;95783.31;4988316;28;20394;-47
2023/10/16 02:13:43;;;;;;;;;;;9.10;56.20;;;4.32;96.28;95775.59;4992825;28;20284;-46
2023/10/16 02:16:12;;;;;;;;;;;9.10;56.30;;;4.28;96.73;95771.78;4996334;28;19909;-47
2023/10/16 02:18:42;;;;;;;;;;;9.00;56.20;;;4.33;97.15;95768.50;4985619;28;19916;-47
2023/10/16 02:21:12;;;;;;;;;;;9.00;56.30;;;4.31;97.99;95765.28;4997351;28;20364;-47
2023/10/16 02:23:48;;;;;;;;;;;9.00;56.40;;;4.32;98.21;95772.16;4991889;28;19921;-46
2023/10/16 02:26:18;;;;;;;;;;;9.00;56.40;;;4.28;99.27;95761.25;4988128;28;20736;-47
2023/10/16 02:28:46;;;;;;;;;;;9.00;56.50;;;4.30;99.10;95753.13;4992014;28;19916;-50
2023/10/16 02:31:18;;;;;;;;;;;9.00;56.60;;;4.27;99.81;95749.09;4985550;28;19944;-49
2023/10/16 02:33:54;;;;;;;;;;;9.00;56.70;;;4.29;100.00;95741.75;4984771;28;19913;-46
2023/10/16 02:36:21;;;;;;;;;;;9.00;57.30;;;4.26;100.00;95752.78;4991909;28;19967;-49
2023/10/16 02:38:48;;;;;;;;;;;9.00;56.80;;;4.26;100.00;95747.50;4992427;28;19937;-47
2023/10/16 02:41:20;;;;;;;;;;;8.90;56.90;;;4.28;100.00;95748.06;4992017;28;19909;-46
2023/10/16 02:43:47;;;;;;;;;;;9.00;57.10;;;4.29;100.00;95738.31;4992145;28;20007;-47
2023/10/16 02:46:13;;;;;;;;;;;9.00;57.20;;;4.29;100.00;95739.13;4992641;28;19916;-47
2023/10/16 02:48:41;;;;;;;;;;;9.00;57.20;;;4.24;100.00;95728.44;4992596;28;19962;-51
2023/10/16 02:51:07;;;;;;;;;;;9.00;57.30;;;4.22;99.46;95733.13;4985108;28;19909;-47
2023/10/16 02:53:34;;;;;;;;;;;8.90;57.30;;;4.22;100.00;95733.13;4990546;28;19967;-48
2023/10/16 02:56:22;;;;;;;;;;;8.90;57.30;;;4.20;100.00;95734.34;4988435;28;19989;-48
2023/10/16 02:58:54;;;;;;;;;;;8.90;57.40;;;4.19;100.00;95725.66;4992113;28;19940;-49
2023/10/16 03:01:21;;;;;;;;;;;8.90;57.40;;;4.16;100.00;95721.63;4986757;28;19913;-49
2023/10/16 03:03:50;;;;;;;;;;;8.90;57.40;;;4.12;100.00;95720.44;4992719;28;20012;-47
2023/10/16 03:06:20;;;;;;;;;;;8.90;57.40;;;4.09;100.00;95717.47;4995017;28;19964;-50
2023/10/16 03:08:49;;;;;;;;;;;8.90;57.50;;;4.05;100.00;95718.94;4987855;28;19916;-47
2023/10/16 03:11:16;;;;;;;;;;;8.80;57.40;;;4.04;99.57;95723.41;4996751;28;19915;-46
2023/10/16 03:13:47;;;;;;;;;;;8.80;57.40;;;4.02;98.34;95727.28;4985100;28;20364;-45
2023/10/16 03:16:23;;;;;;;;;;;8.80;57.50;;;3.95;96.86;95722.09;4994741;28;19916;-46
2023/10/16 03:18:50;;;;;;;;;;;8.80;57.50;;;3.96;96.40;95723.69;4989160;28;19909;-50
2023/10/16 03:23:47;;;;;;;;;;;8.70;57.50;;;3.90;94.59;95720.09;4995069;28;20107;-46
2023/10/16 03:26:28;;;;;;;;;;;8.70;57.50;;;3.88;94.13;95718.69;4989499;28;19971;-51
2023/10/16 03:29:05;;;;;;;;;;;8.70;57.50;;;3.87;93.81;95725.78;4992130;28;19924;-46
2023/10/16 03:31:36;;;;;;;;;;;8.70;57.50;;;3.82;93.24;95725.63;4994806;28;19949;-47
2023/10/16 03:34:02;;;;;;;;;;;8.60;57.50;;;3.85;93.14;95722.56;4993069;28;19925;-47
2023/10/16 03:36:30;;;;;;;;;;;8.60;57.50;;;3.83;92.35;95731.72;4997007;28;19909;-50
2023/10/16 03:38:57;;;;;;;;;;;8.60;57.50;;;3.84;92.89;95725.44;4995735;28;20446;-52
2023/10/16 03:46:52;;;;;;;;;;;8.60;57.50;;;3.77;93.46;95733.41;4975576;28;19914;-46
2023/10/16 03:49:18;;;;;;;;;;;8.60;57.50;;;3.78;93.71;95734.22;4997698;28;19909;-51
2023/10/16 03:51:48;;;;;;;;;;;8.50;57.40;;;3.75;94.14;95730.16;4994516;28;19916;-49
2023/10/16 03:54:16;;;;;;;;;;;8.50;57.50;;;3.71;94.73;95726.38;4990318;28;19914;-49
2023/10/16 03:56:42;;;;;;;;;;;8.50;57.40;;;3.66;94.49;95728.84;4993775;28;20019;-52
2023/10/16 03:59:11;;;;;;;;;;;8.50;57.40;;;3.67;94.57;95733.09;4989486;28;20365;-48
2023/10/16 04:01:37;;;;;;;;;;;8.40;57.40;;;3.57;95.22;95738.03;4993937;28;20265;-48
2023/10/16 04:04:07;;;;;;;;;;;8.40;57.40;;;3.52;96.20;95730.81;5001507;28;19917;-46
2023/10/16 04:06:39;;;;;;;;;;;8.30;57.40;;;3.52;96.41;95732.63;4990052;28;19909;-47
2023/10/16 04:09:06;;;;;;;;;;;8.30;57.40;;;3.48;96.97;95727.00;4997334;28;19932;-47
2023/10/16 04:11:32;;;;;;;;;;;8.30;57.40;;;3.42;97.22;95730.50;4982230;28;20354;-51
2023/10/16 04:13:59;;;;;;;;;;;8.30;57.40;;;3.35;97.32;95725.25;4980351;28;20004;-51
2023/10/16 04:16:49;;;;;;;;;;;8.20;57.40;;;3.34;97.41;95723.66;4993828;28;19913;-50
2023/10/16 04:21:43;;;;;;;;;;;8.10;57.40;;;3.23;98.84;95722.53;4994819;28;19909;-46
2023/10/16 04:25:18;;;;;;;;;;;8.10;57.40;;;3.18;98.94;95716.28;4987079;28;20423;-48
2023/10/16 04:34:57;;;;;;;;;;;7.90;57.60;;;2.95;100.00;95714.25;4987761;28;19913;-48
2023/10/16 04:45:38;;;;;;;;;;;7.70;57.80;;;2.97;100.00;95712.19;4994369;28;19916;-48
2023/10/16 04:53:11;;;;;;;;;;;7.70;58.00;;;3.01;100.00;95711.56;4994085;28;20023;-47
2023/10/16 05:01:17;;;;;;;;;;;7.70;58.00;;;2.97;100.00;95709.56;4985818;28;19913;-48
2023/10/16 05:19:46;;;;;;;;;;;7.60;58.30;;;2.92;100.00;95706.78;4990894;28;20383;-47
2023/10/16 06:14:16;;;;;;;;;;;7.20;59.00;;;2.43;100.00;95719.59;4993640;28;21084;-46
2023/10/16 06:16:45;;;;;;;;;;;7.30;59.00;;;2.46;100.00;95721.81;4983652;28;19910;-47
2023/10/16 06:19:19;;;;;;;;;;;7.30;59.00;;;2.48;100.00;95725.03;4993798;28;19920;-48
2023/10/16 06:21:49;;;;;;;;;;;7.40;59.00;;;2.54;100.00;95718.94;4984838;28;19917;-48
2023/10/16 06:24:33;;;;;;;;;;;7.40;59.00;;;2.53;100.00;95727.03;4991746;28;19909;-46
2023/10/16 06:27:08;;;;;;;;;;;7.50;59.00;;;2.61;100.00;95726.78;4987963;28;19913;-48
2023/10/16 06:29:35;;;;;;;;;;;7.50;59.10;;;2.67;100.00;95730.41;4993728;28;19932;-48
2023/10/16 06:32:18;;;;;;;;;;;7.60;59.10;;;2.68;100.00;95730.19;4977710;28;19957;-54
2023/10/16 06:35:00;;;;;;;;;;;7.60;59.00;;;2.74;100.00;95726.72;4982276;28;20028;-54
2023/10/16 06:37:33;;;;;;;;;;;7.70;59.10;;;2.81;100.00;95725.88;4988677;28;19910;-52
2023/10/16 06:40:16;;;;;;;;;;;7.70;59.00;;;2.85;100.00;95722.63;4988319;28;19910;-54
2023/10/16 06:42:45;;;;;;;;;;;7.80;59.00;;;2.83;100.00;95727.28;4990696;28;19983;-53
2023/10/16 06:45:19;;;;;;;;;;;7.90;59.00;;;2.89;100.00;95721.16;4996610;28;19913;-47
2023/10/16 06:47:49;;;;;;;;;;;7.90;59.00;;;2.97;100.00;95725.34;4984978;28;19967;-49
2023/10/16 06:52:58;;;;;;;;;;;8.00;58.90;;;3.09;100.00;95717.56;4973886;28;19922;-53
2023/10/16 06:55:24;;;;;;;;;;;8.10;59.00;;;3.16;100.00;95716.50;4988344;28;19932;-48
2023/10/16 06:57:50;;;;;;;;;;;8.20;59.00;;;3.19;100.00;95718.69;4992007;28;19917;-49
2023/10/16 07:00:24;;;;;;;;;;;8.30;59.00;;;3.24;100.00;95715.44;4989942;28;19910;-48
2023/10/16 07:02:54;;;;;;;;;;;8.30;59.00;;;3.27;100.00;95717.63;4988699;28;19909;-47
2023/10/16 07:05:24;;;;;;;;;;;8.40;58.90;;;3.31;100.00;95716.19;4996225;28;20304;-47
2023/10/16 07:07:57;;;;;;;;;;;8.50;58.90;;;3.35;100.00;95724.44;4992213;28;19909;-47
2023/10/16 07:10:23;;;;;;;;;;;8.60;58.90;;;3.45;100.00;95722.97;4994523;28;19909;-47
2023/10/16 07:13:02;;;;;;;;;;;8.70;58.90;;;3.58;100.00;95721.22;4996546;28;19919;-48
2023/10/16 07:15:30;;;;;;;;;;;8.80;58.90;;;3.65;100.00;95727.22;4992220;28;20015;-47
2023/10/16 07:18:05;;;;;;;;;;;8.90;58.80;;;3.78;100.00;95721.81;4984544;28;19923;-48
2023/10/16 07:20:52;;;;;;;;;;;9.10;58.80;;;3.87;100.00;95727.63;4983036;28;20003;-50
2023/10/16 07:23:20;;;;;;;;;;;9.20;58.70;;;4.01;100.00;95728.28;4992235;23;19929;-47
2023/10/16 07:25:50;;;;;;;;;;;9.30;58.70;;;4.03;100.00;95734.16;4965434;28;20559;-46
2023/10/16 07:28:18;;;;;;;;;;;9.40;58.60;;;4.18;100.00;95729.31;4985483;28;20016;-46
2023/10/16 07:30:44;;;;;;;;;;;9.60;58.50;;;4.29;100.00;95727.75;4987144;28;19918;-45
2023/10/16 07:33:16;;;;;;;;;;;9.90;58.40;;;4.45;100.00;95729.81;4982969;28;19963;-46
2023/10/16 07:35:48;;;;;;;;;;;10.10;58.40;;;4.51;100.00;95731.56;4986010;28;20568;-49
2023/10/16 07:38:20;;;;;;;;;;;10.30;58.10;;;4.45;100.00;95724.53;4989437;28;20518;-46
2023/10/16 07:41:33;;;;;;;;;;;10.50;58.00;;;4.69;100.00;95728.06;4984082;28;20394;-46
2023/10/16 07:44:04;;;;;;;;;;;10.60;57.80;;;4.80;100.00;95726.53;4983372;28;19909;-46
2023/10/16 07:46:34;;;;;;;;;;;10.70;57.60;;;4.98;100.00;95723.81;4990931;28;19910;-45
2023/10/16 07:49:01;;;;;;;;;;;10.90;57.60;;;5.22;99.23;95732.59;4990416;28;19910;-46
2023/10/16 07:51:28;;;;;;;;;;;11.10;57.50;;;5.37;97.30;95729.53;5010401;28;19925;-45
2023/10/16 07:53:56;;;;;;;;;;;11.30;57.40;;;5.50;96.54;95728.50;5009466;28;19913;-44
2023/10/16 07:56:25;;;;;;;;;;;11.40;57.30;;;5.51;95.89;95728.25;5008361;28;19909;-45
2023/10/16 07:59:06;;;;;;;;;;;11.40;57.20;;;5.51;94.63;95732.75;4997652;28;20433;-45
2023/10/16 08:01:41;;;;;;;;;;;11.50;57.70;;;5.63;95.16;95722.19;5001641;28;19913;-45
2023/10/16 08:07:08;;;;;;;;;;;11.80;56.80;;;5.80;93.41;95733.69;5001602;28;19971;-47
2023/10/16 08:12:18;;;;;;;;;;;12.20;56.60;;;5.99;90.94;95726.47;5005625;28;19909;-47
2023/10/16 08:14:54;;;;;;;;;;;12.40;56.30;;;6.22;89.80;95730.91;5011265;28;19913;-45
2023/10/16 08:17:26;;;;;;;;;;;12.60;56.00;;;6.51;89.44;95731.75;5011180;28;19917;-44
2023/10/16 08:19:52;;;;;;;;;;;12.90;55.80;;;6.91;87.51;95730.91;4982396;28;19912;-44
2023/10/16 08:22:22;;;;;;;;;;;13.20;55.70;;;7.16;84.99;95728.69;5010408;28;19916;-45
2023/10/16 08:25:04;;;;;;;;;;;13.60;55.50;;;6.94;83.99;95728.59;5000419;28;20003;-45
2023/10/16 08:27:50;;;;;;;;;;;13.80;55.20;;;7.07;84.39;95724.03;4994705;28;19949;-47
2023/10/16 08:30:18;;;;;;;;;;;14.00;54.90;;;6.98;84.67;95739.50;4989126;28;19963;-45
2023/10/16 08:35:17;;;;;;;;;;;13.90;54.60;;;7.05;84.28;95734.06;4993396;28;19917;-44
2023/10/16 08:37:44;;;;;;;;;;;13.70;54.50;;;7.09;83.84;95738.66;4972531;28;19985;-48
2023/10/16 08:40:20;;;;;;;;;;;13.60;54.60;;;7.01;83.84;95740.88;4968323;28;19909;-45
2023/10/16 08:43:08;;;;;;;;;;;13.50;54.60;;;6.45;84.94;95736.13;4968626;28;19991;-49
2023/10/16 08:45:34;;;;;;;;;;;13.40;54.60;;;6.53;87.27;95734.97;4964932;28;19913;-45
2023/10/16 08:48:05;;;;;;;;;;;13.30;54.40;;;6.90;84.98;95738.06;4965612;28;20019;-45
2023/10/16 08:50:43;;;;;;;;;;;13.50;54.40;;;7.10;85.81;95736.81;4981310;28;19910;-45
2023/10/16 08:53:30;;;;;;;;;;;13.80;54.30;;;7.52;81.20;95739.91;4967205;28;19917;-45
2023/10/16 08:56:08;;;;;;;;;;;14.10;54.10;;;8.10;80.26;95748.44;4965889;28;20368;-50
2023/10/16 08:58:44;;;;;;;;;;;14.70;54.00;;;8.26;76.24;95733.53;4974875;28;19960;-46
2023/10/16 09:01:14;;;;;;;;;;;15.10;53.70;;;8.67;75.22;95728.72;4965669;28;20008;-48
2023/10/16 09:04:14;;;;;;;;;;;15.50;53.40;;;8.93;73.03;95727.13;4966288;28;20269;-48
2023/10/16 09:06:39;;;;;;;;;;;16.10;53.00;;;9.21;71.82;95721.59;4968226;28;19917;-47
2023/10/16 09:09:12;;;;;;;;;;;16.50;52.60;;;9.58;70.26;95726.13;4970092;28;19917;-46
2023/10/16 09:11:39;;;;;;;;;;;16.90;52.30;;;9.84;67.83;95721.81;4970120;28;19913;-46
2023/10/16 09:14:09;;;;;;;;;;;17.30;51.80;;;10.15;68.06;95725.47;4967267;28;19914;-47
2023/10/16 09:16:35;;;;;;;;;;;17.60;51.40;;;10.37;67.25;95725.34;4969066;28;20346;-48
2023/10/16 09:19:06;;;;;;;;;;;18.00;50.90;;;10.28;67.52;95726.91;4968997;28;19924;-48
2023/10/16 09:21:38;;;;;;;;;;;18.20;50.30;;;10.58;64.68;95722.75;4977554;28;19922;-48
2023/10/16 09:24:06;;;;;;;;;;;18.40;50.00;;;10.29;65.22;95725.84;4965470;28;21047;-47
2023/10/16 09:26:38;;;;;;;;;;;18.60;49.50;;;10.14;64.97;95723.06;4966419;28;19922;-48
2023/10/16 09:29:05;;;;;;;;;;;18.60;49.10;;;9.90;67.38;95725.28;4944993;28;19928;-47
2023/10/16 09:31:31;;;;;;;;;;;18.70;48.60;;;10.27;65.36;95733.25;4969109;28;20032;-46
2023/10/16 09:33:57;;;;;;;;;;;18.70;48.50;;;10.71;65.25;95729.47;4967960;28;19924;-51
2023/10/16 09:36:29;;;;;;;;;;;18.80;48.30;;;11.06;62.88;95732.25;4969194;28;19909;-47
2023/10/16 09:38:59;;;;;;;;;;;18.90;48.40;;;11.02;63.45;95725.00;4964612;28;19925;-46
2023/10/16 09:43:58;;;;;;;;;;;19.30;47.80;;;10.93;62.98;95724.72;4966369;28;20333;-46
2023/10/16 09:46:52;;;;;;;;;;;19.30;47.50;;;10.98;64.39;95715.94;4966237;28;19925;-46
2023/10/16 09:49:24;;;;;;;;;;;19.40;47.20;;;11.32;61.30;95709.06;4968817;28;19910;-48
2023/10/16 09:52:01;;;;;;;;;;;19.60;47.10;;;11.08;61.60;95699.97;4967056;28;20298;-46
2023/10/16 09:54:29;;;;;;;;;;;19.70;46.70;;;11.03;62.55;95694.63;4968195;28;20377;-48
2023/10/16 09:57:00;;;;;;;;;;;19.70;46.30;;;11.11;61.17;95696.78;4967509;28;20009;-47
2023/10/16 09:59:39;;;;;;;;;;;19.70;46.00;;;11.05;60.70;95695.16;4968881;28;20257;-46
2023/10/16 10:02:06;;;;;;;;;;;19.70;45.70;;;11.18;62.24;95701.84;4965119;28;20482;-46
2023/10/16 10:04:36;;;;;;;;;;;19.70;45.70;;;11.13;61.07;95700.00;4963108;28;20265;-48
2023/10/16 10:07:34;;;;;;;;;;;19.80;45.70;;;11.16;61.75;95701.34;4966436;28;19964;-48
2023/10/16 10:10:39;;;;;;;;;;;19.90;45.70;;;11.54;59.85;95705.34;4965843;28;19914;-47
2023/10/16 10:13:08;;;;;;;;;;;20.00;45.50;;;11.60;59.83;95706.94;4958175;28;21236;-46
2023/10/16 10:15:43;;;;;;;;;;;20.10;45.40;;;11.92;60.34;95701.34;4966411;28;20266;-46
2023/10/16 10:18:32;;;;;;;;;;;20.10;45.30;;;11.88;58.34;95699.47;4959216;28;20356;-47
2023/10/16 10:20:59;;;;;;;;;;;20.30;45.30;;;11.90;58.26;95700.78;4963961;28;19913;-49
2023/10/16 10:23:26;;;;;;;;;;;20.50;45.00;;;11.71;58.32;95700.53;4965780;28;19917;-47
2023/10/16 10:25:54;;;;;;;;;;;20.70;44.50;;;12.05;59.57;95694.63;4967059;28;19940;-48
2023/10/16 10:28:32;;;;;;;;;;;20.80;44.40;;;11.77;59.57;95688.78;4965375;28;19918;-49
2023/10/16 10:31:02;;;;;;;;;;;20.90;44.30;;;11.80;60.62;95690.09;4961191;28;20577;-46
2023/10/16 10:33:36;;;;;;;;;;;21.10;44.00;;;11.92;60.19;95679.19;4965211;28;19963;-47
2023/10/16 10:36:33;;;;;;;;;;;21.20;43.80;;;11.79;60.38;95683.97;4961998;28;19917;-46
2023/10/16 10:39:43;;;;;;;;;;;21.20;43.40;;;12.27;59.54;95676.41;4961779;28;19918;-48
2023/10/16 10:42:16;;;;;;;;;;;21.30;43.10;;;12.44;57.41;95662.72;4921990;29;19980;-49
2023/10/16 10:45:17;;;;;;;;;;;21.40;42.70;;;12.68;55.77;95665.53;4958528;28;19921;-46
2023/10/16 10:47:43;;;;;;;;;;;21.50;42.50;;;12.72;55.84;95666.59;4963679;28;19909;-47
2023/10/16 10:50:13;;;;;;;;;;;21.70;42.50;;;12.87;55.77;95665.69;4967249;28;19967;-46
2023/10/16 10:52:40;;;;;;;;;;;21.80;42.30;;;12.75;55.87;95657.22;4965492;28;19933;-51
2023/10/16 10:55:18;;;;;;;;;;;22.00;42.20;;;12.83;54.86;95658.53;4978843;28;19917;-47
2023/10/16 10:57:47;;;;;;;;;;;22.10;41.80;;;12.98;54.36;95652.28;4965861;28;20412;-47
2023/10/16 11:05:33;;;;;;;;;;;22.30;41.10;;;12.78;53.31;95645.19;4965330;28;19909;-46
2023/10/16 11:10:44;;;;;;;;;;;22.50;40.90;;;13.10;52.37;95648.19;4968358;28;19917;-46
2023/10/16 11:13:14;;;;;;;;;;;22.70;40.90;;;13.58;52.88;95643.00;4966649;28;20006;-47
2023/10/16 11:15:52;;;;;;;;;;;22.80;40.80;;;13.53;52.03;95635.00;4965812;28;19921;-46
2023/10/16 11:18:21;;;;;;;;;;;22.90;40.50;;;13.75;52.29;95631.06;4965944;28;20017;-47
2023/10/16 11:20:52;;;;;;;;;;;23.10;40.50;;;13.86;51.13;95624.53;4961935;28;20572;-49
2023/10/16 11:23:21;;;;;;;;;;;23.20;40.20;;;14.01;51.40;95623.59;4965029;28;19993;-50
2023/10/16 11:25:52;;;;;;;;;;;23.40;39.90;;;14.19;50.75;95624.69;4963378;28;19956;-47
2023/10/16 11:28:31;;;;;;;;;;;23.50;39.60;;;13.79;50.17;95611.50;4965248;28;19914;-46
2023/10/16 11:31:00;;;;;;;;;;;23.70;39.20;;;13.57;52.54;95611.16;4968837;28;19962;-49
2023/10/16 11:34:00;;;;;;;;;;;23.70;39.10;;;13.36;54.32;95597.19;4968980;28;19914;-48
2023/10/16 11:36:28;;;;;;;;;;;23.80;38.90;;;13.82;53.31;95586.81;4972193;28;19914;-48
2023/10/16 11:38:59;;;;;;;;;;;23.80;38.70;;;13.83;52.45;95601.81;4967384;28;19924;-50
2023/10/16 11:41:26;;;;;;;;;;;23.90;38.50;;;14.07;51.89;95598.31;4974636;28;19910;-48
2023/10/16 11:43:54;;;;;;;;;;;23.80;38.20;;;14.15;52.23;95588.84;4966161;28;19932;-49
2023/10/16 11:46:33;;;;;;;;;;;23.90;38.10;;;14.18;50.89;95580.25;4968426;28;20358;-49
2023/10/16 11:52:19;;;;;;;;;;;24.10;37.70;;;14.10;51.81;95585.16;4962193;28;20395;-50
2023/10/16 11:54:53;;;;;;;;;;;24.10;37.80;;;14.20;52.46;95575.41;4969363;28;20465;-47
2023/10/16 11:57:19;;;;;;;;;;;24.20;37.80;;;14.40;51.09;95579.69;4968380;28;20012;-47
2023/10/16 11:59:45;;;;;;;;;;;24.20;37.80;;;14.24;51.88;95577.22;4967732;28;19909;-48
2023/10/16 12:02:14;;;;;;;;;;;24.20;37.50;;;14.64;53.78;95577.00;4965509;28;19924;-47
2023/10/16 12:04:41;;;;;;;;;;;24.20;37.50;;;14.53;50.17;95585.16;4966682;28;19918;-47
2023/10/16 12:07:13;;;;;;;;;;;24.30;37.60;;;14.35;50.56;95573.34;4969700;28;19913;-51
2023/10/16 12:09:42;;;;;;;;;;;24.30;37.20;;;14.28;51.02;95569.41;4964006;28;19964;-49
2023/10/16 12:12:19;;;;;;;;;;;24.30;37.30;;;14.16;51.09;95571.69;4968173;28;19960;-51
2023/10/16 12:14:49;;;;;;;;;;;24.30;37.10;;;14.50;50.88;95560.78;4969232;28;19941;-47
2023/10/16 12:17:19;;;;;;;;;;;24.30;37.00;;;14.68;49.66;95552.00;4969014;28;19921;-52
2023/10/16 12:19:47;;;;;;;;;;;24.30;37.10;;;14.55;50.27;95556.19;4972643;28;19910;-53
2023/10/16 12:22:15;;;;;;;;;;;24.40;36.80;;;14.10;52.95;95545.00;4967056;28;20294;-48
2023/10/16 12:24:44;;;;;;;;;;;24.40;36.60;;;14.51;51.73;95528.38;4965320;28;19924;-50
2023/10/16 12:27:15;;;;;;;;;;;24.40;36.70;;;14.72;50.88;95528.06;4969867;28;19956;-45
2023/10/16 12:29:41;;;;;;;;;;;24.40;36.80;;;14.61;51.58;95527.44;4970294;28;19936;-46
2023/10/16 12:32:07;;;;;;;;;;;24.50;36.80;;;14.94;50.30;95517.53;4966965;28;19921;-45
2023/10/16 12:34:34;;;;;;;;;;;24.50;37.10;;;14.56;50.26;95520.25;4967851;28;19924;-55
2023/10/16 12:37:00;;;;;;;;;;;24.60;37.10;;;14.23;51.66;95519.38;4968915;28;19916;-48
2023/10/16 12:39:30;;;;;;;;;;;24.60;37.10;;;14.00;51.97;95510.28;4969725;28;20107;-45
2023/10/16 12:41:57;;;;;;;;;;;24.60;36.90;;;14.15;51.26;95517.31;4969696;28;19925;-53
2023/10/16 12:44:23;;;;;;;;;;;24.60;36.40;;;14.38;51.89;95506.84;4965379;28;19952;-52
2023/10/16 12:46:53;;;;;;;;;;;24.70;36.10;;;14.24;50.27;95502.22;4966364;28;20282;-49
2023/10/16 12:49:23;;;;;;;;;;;24.70;35.90;;;14.30;50.06;95503.72;4973546;28;19917;-51
2023/10/16 12:51:49;;;;;;;;;;;24.60;35.70;;;14.14;50.67;95504.25;4964224;28;19913;-50
2023/10/16 12:54:16;;;;;;;;;;;24.60;35.60;;;14.07;51.81;95504.56;4968198;28;19949;-53
2023/10/16 12:56:43;;;;;;;;;;;24.60;35.90;;;13.72;51.81;95497.78;4972436;28;19992;-51
2023/10/16 12:59:10;;;;;;;;;;;24.50;35.20;;;13.52;52.88;95485.44;4966779;28;19913;-51
2023/10/16 13:01:38;;;;;;;;;;;24.40;35.10;;;13.87;52.23;95482.34;4971472;28;19965;-53
2023/10/16 13:04:13;;;;;;;;;;;24.40;35.10;;;13.01;54.11;95481.41;4967324;28;19909;-52
2023/10/16 13:06:39;;;;;;;;;;;24.30;34.90;;;13.17;53.53;95479.38;4969747;28;19917;-50
2023/10/16 13:09:14;;;;;;;;;;;24.20;34.80;;;13.41;53.66;95482.91;4969132;28;19916;-52
2023/10/16 13:11:40;;;;;;;;;;;24.10;34.80;;;13.38;53.17;95482.66;4971001;28;20265;-53
2023/10/16 13:14:06;;;;;;;;;;;24.00;34.60;;;13.43;52.68;95478.03;4970031;28;19969;-50
2023/10/16 13:16:33;;;;;;;;;;;23.90;34.60;;;13.26;54.13;95472.34;4966529;28;20309;-48
2023/10/16 13:18:59;;;;;;;;;;;23.80;34.60;;;13.80;52.61;95479.22;4964585;28;19959;-51
2023/10/16 13:21:38;;;;;;;;;;;23.70;35.10;;;14.03;51.93;95472.22;4966253;28;19914;-52
2023/10/16 13:24:09;;;;;;;;;;;23.60;35.30;;;14.22;51.46;95474.09;4988383;23;20019;-48
2023/10/16 13:26:36;;;;;;;;;;;23.70;35.60;;;14.58;50.11;95477.88;4997789;28;19923;-47
2023/10/16 13:29:07;;;;;;;;;;;23.70;35.90;;;14.63;50.78;95479.69;5000232;28;20000;-48
2023/10/16 13:31:36;;;;;;;;;;;23.90;36.00;;;14.50;50.05;95470.47;4997488;28;19913;-50
2023/10/16 13:34:05;;;;;;;;;;;24.00;35.90;;;14.38;50.85;95472.78;5005326;28;20283;-48
2023/10/16 13:36:35;;;;;;;;;;;24.10;35.80;;;14.32;48.68;95471.28;5013315;28;19917;-47
2023/10/16 13:39:08;;;;;;;;;;;24.20;35.60;;;13.92;49.97;95464.63;5013997;28;20397;-48
2023/10/16 13:41:50;;;;;;;;;;;24.30;35.10;;;14.20;50.62;95458.34;5011993;28;20271;-49
2023/10/16 13:44:25;;;;;;;;;;;24.30;34.90;;;14.69;49.92;95467.00;5014316;28;20136;-47
2023/10/16 13:46:55;;;;;;;;;;;24.40;35.10;;;14.22;50.81;95463.41;5028003;28;19913;-49
2023/10/16 13:49:24;;;;;;;;;;;24.60;35.10;;;13.84;51.32;95450.00;5010987;28;20030;-48
2023/10/16 13:51:52;;;;;;;;;;;24.60;34.80;;;13.84;50.77;95450.78;5009530;28;20471;-47
2023/10/16 13:54:18;;;;;;;;;;;24.70;34.50;;;13.94;49.49;95444.50;5010315;28;19965;-46